M I D A S
Marine Information and Data Acquisition System
Tripno 322 of the Zeeleeuw from 2002-03-20 09:00:00 to 2002-03-20 13:32:00
Back to CruiseResearch ActivitiesStationsMapUnderway DataData graphs

EquipmentUnitsComment
TimeDGPSUTC
LatitudeDGPSDM.mWGS84
LongitudeDGPSDM.mWGS84
TemperatureSBE03/SBE38deg celciusITS90
ConductivitySBE21S/mITS90
SalinitySBE21 Practical Salinity Units
ChlorophylAChelsea fluorimeterg/lCalibrated in Aceton
Missing or incorrect values are displayed as -999
Sea surface data collected by the RV Zeeleeuw from 2002-03-20 09:00:00 to 2002-03-20 13:32:00
                                                                                    Next 1000 lines
Time Latitude Longitude Temperature Conductivity Salinity ChlorophylA
2002-03-20 09:00:07 51°13.597 2°56.098 15.312484 0.017233 0.090542  
2002-03-20 09:00:12 51°13.597 2°56.098 15.329024 0.017233 0.090543  
2002-03-20 09:00:17 51°13.597 2°56.098 15.325864 0.017233 0.090546  
2002-03-20 09:00:22 51°13.597 2°56.098 15.318287 0.017233 0.090546  
2002-03-20 09:00:27 51°13.597 2°56.098 15.321361 0.017233 0.090547  
2002-03-20 09:00:32 51°13.597 2°56.098 15.321361 0.017233 0.090547  
2002-03-20 09:00:37 51°13.597 2°56.098 15.32963 0.017233 0.090549  
2002-03-20 09:00:43 51°13.597 2°56.098 15.32963 0.017233 0.090552  
2002-03-20 09:00:47 51°13.597 2°56.098 15.332055 0.017233 0.090553  
2002-03-20 09:00:53 51°13.597 2°56.098 15.324998 0.017233 0.090554  
2002-03-20 09:00:57 51°13.597 2°56.098 15.320495 0.017233 0.090556  
2002-03-20 09:01:02 51°13.597 2°56.098 15.320495 0.017233 0.090556  
2002-03-20 09:01:07 51°13.597 2°56.098 15.320971 0.017233 0.09056  
2002-03-20 09:01:12 51°13.597 2°56.098 15.318113 0.017233 0.090561  
2002-03-20 09:01:17 51°13.596 2°56.098 15.331708 0.017233 0.090562  
2002-03-20 09:01:22 51°13.596 2°56.097 15.32976 0.017233 0.090562  
2002-03-20 09:01:27 51°13.596 2°56.097 15.328721 0.017233 0.090565  
2002-03-20 09:01:33 51°13.596 2°56.097 15.328721 0.017233 0.090565  
2002-03-20 09:01:37 51°13.596 2°56.097 15.325647 0.017233 0.090568  
2002-03-20 09:01:42 51°13.596 2°56.097 15.320105 0.017233 0.090568  
2002-03-20 09:01:47 51°13.596 2°56.097 15.3337 0.017233 0.09057  
2002-03-20 09:01:53 51°13.596 2°56.098 15.327552 0.017233 0.090573  
2002-03-20 09:01:58 51°13.597 2°56.098 15.327552 0.017233 0.090575  
2002-03-20 09:02:03 51°13.596 2°56.098 15.327552 0.017233 0.090575  
2002-03-20 09:02:08 51°13.596 2°56.098 15.319109 0.017233 0.090576  
2002-03-20 09:02:13 51°13.596 2°56.098 15.318633 0.017233 0.090579  
2002-03-20 09:02:18 51°13.597 2°56.098 15.318243 0.017233 0.09058  
2002-03-20 09:02:23 51°13.597 2°56.097 15.321447 0.017233 0.090582  
2002-03-20 09:02:28 51°13.597 2°56.097 15.318027 0.017233 0.090585  
2002-03-20 09:02:34 51°13.597 2°56.097 15.318027 0.017233 0.090585  
2002-03-20 09:02:38 51°13.597 2°56.097 15.26102 0.017233 0.090586  
2002-03-20 09:02:43 51°13.597 2°56.097 15.278309 0.017233 0.090586  
2002-03-20 09:02:48 51°13.597 2°56.098 15.27298 0.017233 0.090587  
2002-03-20 09:02:53 51°13.597 2°56.098 15.307591 0.017233 0.090589  
2002-03-20 09:02:58 51°13.597 2°56.098 15.307417 0.017233 0.09059  
2002-03-20 09:03:03 51°13.597 2°56.098 15.307417 0.017233 0.09059  
2002-03-20 09:03:08 51°13.597 2°56.098 15.313134 0.017233 0.090593  
2002-03-20 09:03:13 51°13.597 2°56.098 15.312354 0.017233 0.090594  
2002-03-20 09:03:18 51°13.597 2°56.098 15.324998 0.017233 0.090595  
2002-03-20 09:03:23 51°13.597 2°56.098 15.324305 0.017233 0.090597  
2002-03-20 09:03:28 51°13.597 2°56.098 15.331752 0.017233 0.090599  
2002-03-20 09:03:33 51°13.597 2°56.098 15.331752 0.017233 0.090599  
2002-03-20 09:03:39 51°13.597 2°56.098 15.329024 0.017233 0.0906  
2002-03-20 09:03:43 51°13.597 2°56.099 15.331492 0.017233 0.090602  
2002-03-20 09:03:48 51°13.596 2°56.099 15.334955 0.017233 0.090602  
2002-03-20 09:03:53 51°13.596 2°56.099 15.348677 0.017233 0.090602  
2002-03-20 09:03:58 51°13.596 2°56.099 15.351663 0.017233 0.090603  
2002-03-20 09:04:03 51°13.596 2°56.099 15.351663 0.017233 0.090603  
2002-03-20 09:04:08 51°13.596 2°56.099 15.347724 0.017233 0.090605  
2002-03-20 09:04:12 51°13.596 2°56.099 15.346772 0.017233 0.090605  
2002-03-20 09:04:17 51°13.596 2°56.099 15.347292 0.017233 0.090606  
2002-03-20 09:04:23 51°13.596 2°56.099 15.352009 0.017233 0.090606  
2002-03-20 09:04:28 51°13.596 2°56.099 15.353783 0.017233 0.090606  
2002-03-20 09:04:32 51°13.596 2°56.099 15.353783 0.017233 0.090606  
2002-03-20 09:04:37 51°13.596 2°56.099 15.356683 0.017233 0.090608  
2002-03-20 09:04:43 51°13.595 2°56.099 15.356294 0.017233 0.090607  
2002-03-20 09:04:47 51°13.595 2°56.099 15.367458 0.017233 0.090609  
2002-03-20 09:04:53 51°13.595 2°56.099 15.366636 0.017233 0.090609  
2002-03-20 09:04:57 51°13.595 2°56.099 15.36789 0.017233 0.090609  
2002-03-20 09:05:03 51°13.595 2°56.099 15.36789 0.017233 0.090609  
2002-03-20 09:05:07 51°13.595 2°56.099 15.378317 0.017233 0.090608  
2002-03-20 09:05:12 51°13.595 2°56.099 15.396398 0.017233 0.090609  
2002-03-20 09:05:17 51°13.596 2°56.098 15.402583 0.017233 0.09061  
2002-03-20 09:05:23 51°13.596 2°56.096 15.397134 0.017233 0.090609  
2002-03-20 09:05:27 51°13.596 2°56.094 15.386493 0.017233 0.090612  
2002-03-20 09:05:33 51°13.597 2°56.09 15.386493 0.017233 0.090612  
2002-03-20 09:05:38 51°13.598 2°56.086 15.367025 0.017233 0.090612  
2002-03-20 09:05:43 51°13.599 2°56.082 15.357159 0.017233 0.090612  
2002-03-20 09:05:48 51°13.601 2°56.077 15.360361 0.017233 0.090614  
2002-03-20 09:05:53 51°13.602 2°56.072 15.378231 0.017233 0.090615  
2002-03-20 09:05:58 51°13.603 2°56.066 15.398604 0.017233 0.090615  
2002-03-20 09:06:03 51°13.605 2°56.06 15.398604 0.017233 0.090615  
2002-03-20 09:06:08 51°13.607 2°56.053 15.400075 0.017233 0.090618  
2002-03-20 09:06:13 51°13.609 2°56.046 15.380221 0.017233 0.090618  
2002-03-20 09:06:18 51°13.611 2°56.038 15.380956 0.017233 0.090619  
2002-03-20 09:06:23 51°13.613 2°56.031 15.352096 0.017233 0.09062  
2002-03-20 09:06:28 51°13.615 2°56.024 15.372909 0.017233 0.090621  
2002-03-20 09:06:33 51°13.617 2°56.017 15.372909 0.017233 0.090621  
2002-03-20 09:06:37 51°13.618 2°56.012 15.373861 0.017233 0.090621  
2002-03-20 09:06:42 51°13.62 2°56.005 15.35638 0.017233 0.090622  
2002-03-20 09:06:46 51°13.621 2°56.001 15.332055 0.017233 0.090625  
2002-03-20 09:06:52 51°13.622 2°55.998 15.299232 0.017233 0.090625  
2002-03-20 09:06:57 51°13.623 2°55.997 15.341924 0.017233 0.090627  
2002-03-20 09:07:02 51°13.623 2°55.999 15.341924 0.017233 0.090627  
2002-03-20 09:07:07 51°13.623 2°56.001 15.426364 0.017233 0.090626  
2002-03-20 09:07:12 51°13.623 2°56.003 15.490533 0.017233 0.090626  
2002-03-20 09:07:17 51°13.623 2°56.004 15.371049 0.017233 0.090628  
2002-03-20 09:07:23 51°13.624 2°56.004 15.318503 0.017233 0.090632  
2002-03-20 09:07:27 51°13.625 2°56.003 15.377798 0.017233 0.090633  
2002-03-20 09:07:32 51°13.626 2°56 15.377798 0.017233 0.090633  
2002-03-20 09:07:37 51°13.628 2°55.997 15.429736 0.017233 0.090634  
2002-03-20 09:07:43 51°13.63 2°55.991 15.436696 0.017233 0.090636  
2002-03-20 09:07:48 51°13.632 2°55.985 15.449446 0.017233 0.090636  
2002-03-20 09:07:53 51°13.634 2°55.979 15.417458 0.017233 0.090639  
2002-03-20 09:07:58 51°13.636 2°55.973 15.444778 0.017233 0.090639  
2002-03-20 09:08:03 51°13.638 2°55.967 15.444778 0.017233 0.090639  
2002-03-20 09:08:08 51°13.64 2°55.961 15.475414 0.017233 0.090642  
2002-03-20 09:08:13 51°13.641 2°55.955 15.488935 0.017233 0.090645  
2002-03-20 09:08:18 51°13.643 2°55.949 15.509232 0.017233 0.090645  
2002-03-20 09:08:23 51°13.645 2°55.943 15.510959 0.017233 0.090648  
2002-03-20 09:08:28 51°13.647 2°55.937 15.508368 0.017233 0.090649  
2002-03-20 09:08:33 51°13.649 2°55.93 15.508368 0.017233 0.090649  
2002-03-20 09:08:38 51°13.65 2°55.924 -999 0.017233 0.090653  
2002-03-20 09:08:43 51°13.652 2°55.918 38.980898 0.017233 0.090654  
2002-03-20 09:08:48 51°13.654 2°55.911 39.058795 0.017233 0.090655  
2002-03-20 09:08:53 51°13.656 2°55.905 31.090128 0.017233 0.090658  
2002-03-20 09:08:58 51°13.658 2°55.898 15.484183 0.017233 0.09066  
2002-03-20 09:09:03 51°13.66 2°55.891 15.484183 0.017233 0.09066  
2002-03-20 09:09:08 51°13.662 2°55.883 15.490101 0.017233 0.090661  
2002-03-20 09:09:13 51°13.664 2°55.876 15.492908 0.017233 0.090662  
2002-03-20 09:09:18 51°13.666 2°55.868 15.494161 0.017233 0.090665  
2002-03-20 09:09:23 51°13.668 2°55.86 15.474593 0.017233 0.090668  
2002-03-20 09:09:28 51°13.67 2°55.851 15.494765 0.017233 0.090669  
2002-03-20 09:09:33 51°13.672 2°55.842 15.494765 0.017233 0.090669  
2002-03-20 09:09:38 51°13.674 2°55.833 15.482283 0.017233 0.090673  
2002-03-20 09:09:43 51°13.675 2°55.824 15.47887 0.017233 0.090677  
2002-03-20 09:09:48 51°13.677 2°55.814 15.476753 0.017233 0.090678  
2002-03-20 09:09:53 51°13.679 2°55.804 15.384504 0.017233 0.090681  
2002-03-20 09:09:58 51°13.68 2°55.795 15.392333 0.017233 0.090684  
2002-03-20 09:10:03 51°13.681 2°55.786 15.392333 0.017233 0.090684  
2002-03-20 09:10:07 51°13.682 2°55.78 15.423598 0.017233 0.090686  
2002-03-20 09:10:13 51°13.683 2°55.77 15.400853 0.017233 0.090687  
2002-03-20 09:10:17 51°13.683 2°55.764 15.428915 0.017233 0.090688  
2002-03-20 09:10:22 51°13.684 2°55.758 15.388656 0.017233 0.090692  
2002-03-20 09:10:27 51°13.684 2°55.755 15.287883 0.017233 0.090695  
2002-03-20 09:10:32 51°13.685 2°55.754 15.287883 0.017233 0.090695  
2002-03-20 09:10:37 51°13.686 2°55.754 15.306032 0.017233 0.090697  
2002-03-20 09:10:43 51°13.688 2°55.757 15.242339 0.017233 0.090701  
2002-03-20 09:10:47 51°13.691 2°55.76 15.232065 0.017233 0.090705  
2002-03-20 09:10:53 51°13.695 2°55.763 15.257033 0.017233 0.090709  
2002-03-20 09:10:58 51°13.7 2°55.766 15.250011 0.017233 0.090711  
2002-03-20 09:11:03 51°13.706 2°55.767 15.250011 0.017233 0.090711  
2002-03-20 09:11:08 51°13.713 2°55.767 15.293644 0.017233 0.090714  
2002-03-20 09:11:12 51°13.718 2°55.765 15.372909 0.017233 0.090718  
2002-03-20 09:11:17 51°13.724 2°55.762 15.464484 0.017233 0.090716  
2002-03-20 09:11:22 51°13.729 2°55.759 15.495499 0.017233 0.09071  
2002-03-20 09:11:27 51°13.734 2°55.756 15.480296 0.017233 0.090706  
2002-03-20 09:11:32 51°13.737 2°55.754 15.480296 0.017233 0.090706  
2002-03-20 09:11:37 51°13.739 2°55.752 15.470619 0.017233 0.090706  
2002-03-20 09:11:43 51°13.74 2°55.751 15.413826 0.017233 0.090706  
2002-03-20 09:11:47 51°13.74 2°55.751 15.406216 0.017233 0.090706  
2002-03-20 09:11:52 51°13.739 2°55.752 15.421695 0.017233 0.090704  
2002-03-20 09:11:59 51°13.737 2°55.755 15.389002 0.017233 0.090706  
2002-03-20 09:12:03 51°13.735 2°55.757 15.389002 0.017233 0.090706  
2002-03-20 09:12:08 51°13.732 2°55.761 15.397955 0.017233 0.090711  
2002-03-20 09:12:13 51°13.729 2°55.765 15.415599 0.017233 0.090713  
2002-03-20 09:12:18 51°13.726 2°55.77 15.432762 0.017233 0.090716  
2002-03-20 09:12:23 51°13.722 2°55.774 15.437258 0.017233 0.090719  
2002-03-20 09:12:28 51°13.718 2°55.779 15.397739 0.017233 0.09072  
2002-03-20 09:12:33 51°13.715 2°55.785 15.397739 0.017233 0.09072  
2002-03-20 09:12:38 51°13.711 2°55.79 15.431163 0.017233 0.09072  
2002-03-20 09:12:43 51°13.708 2°55.795 15.428396 0.017233 0.090722  
2002-03-20 09:12:48 51°13.705 2°55.8 15.422214 0.017233 0.090722  
2002-03-20 09:12:53 51°13.702 2°55.806 15.434232 0.017233 0.090723  
2002-03-20 09:12:58 51°13.699 2°55.811 15.429391 0.017233 0.090725  
2002-03-20 09:13:03 51°13.697 2°55.816 15.429391 0.017233 0.090725  
2002-03-20 09:13:07 51°13.695 2°55.82 15.434189 0.017233 0.090726  
2002-03-20 09:13:12 51°13.692 2°55.824 15.43648 0.017233 0.090727  
2002-03-20 09:13:17 51°13.69 2°55.828 15.429218 0.017233 0.090729  
2002-03-20 09:13:23 51°13.687 2°55.833 15.437128 0.017233 0.09073  
2002-03-20 09:13:27 51°13.685 2°55.835 15.440889 0.017233 0.090731  
2002-03-20 09:13:32 51°13.684 2°55.837 15.440889 0.017233 0.090731  
2002-03-20 09:13:37 51°13.683 2°55.839 15.437215 0.017233 0.090732  
2002-03-20 09:13:43 51°13.682 2°55.841 15.438425 0.017233 0.090733  
2002-03-20 09:13:47 51°13.681 2°55.842 15.444822 0.017233 0.090736  
2002-03-20 09:13:52 51°13.68 2°55.843 15.422819 0.017233 0.090737  
2002-03-20 09:13:57 51°13.679 2°55.844 15.429218 0.017233 0.090738  
2002-03-20 09:14:03 51°13.679 2°55.845 15.429218 0.017233 0.090738  
2002-03-20 09:14:07 51°13.679 2°55.845 15.428483 0.017233 0.090742  
2002-03-20 09:14:13 51°13.678 2°55.846 15.443871 0.017233 0.090744  
2002-03-20 09:14:17 51°13.678 2°55.847 15.453163 0.017233 0.090743  
2002-03-20 09:14:23 51°13.678 2°55.848 15.466169 0.017233 0.090746  
2002-03-20 09:14:27 51°13.677 2°55.849 15.386493 0.017233 0.090749  
2002-03-20 09:14:32 51°13.676 2°55.851 15.386493 0.017233 0.090749  
2002-03-20 09:14:37 51°13.676 2°55.852 15.388699 0.017233 0.09075  
2002-03-20 09:14:42 51°13.675 2°55.853 15.393371 0.017233 0.090751  
2002-03-20 09:14:47 51°13.675 2°55.854 15.405394 0.017233 0.090755  
2002-03-20 09:14:52 51°13.675 2°55.854 15.419274 0.017233 0.090755  
2002-03-20 09:14:57 51°13.675 2°55.855 15.41802 0.017233 0.090758  
2002-03-20 09:15:03 51°13.675 2°55.856 15.41802 0.017233 0.090758  
2002-03-20 09:15:08 51°13.675 2°55.856 15.42109 0.017233 0.090759  
2002-03-20 09:15:13 51°13.675 2°55.856 15.440759 0.017233 0.090762  
2002-03-20 09:15:18 51°13.675 2°55.856 15.446118 0.017233 0.090764  
2002-03-20 09:15:23 51°13.675 2°55.856 15.448366 0.017233 0.090767  
2002-03-20 09:15:28 51°13.675 2°55.856 15.455799 0.017233 0.090769  
2002-03-20 09:15:33 51°13.675 2°55.856 15.455799 0.017233 0.090769  
2002-03-20 09:15:37 51°13.676 2°55.856 15.457095 0.017233 0.09077  
2002-03-20 09:15:43 51°13.676 2°55.856 15.464095 0.017233 0.090772  
2002-03-20 09:15:47 51°13.676 2°55.856 15.461157 0.017233 0.090775  
2002-03-20 09:15:52 51°13.677 2°55.856 15.467379 0.017233 0.090776  
2002-03-20 09:15:57 51°13.677 2°55.855 15.463663 0.017233 0.090778  
2002-03-20 09:16:02 51°13.677 2°55.855 15.463663 0.017233 0.090778  
2002-03-20 09:16:07 51°13.678 2°55.855 15.470144 0.017233 0.09078  
2002-03-20 09:16:12 51°13.678 2°55.854 15.416118 0.017233 0.090783  
2002-03-20 09:16:17 51°13.679 2°55.854 15.430125 0.017233 0.090784  
2002-03-20 09:16:23 51°13.681 2°55.853 15.439549 0.017233 0.090787  
2002-03-20 09:16:27 51°13.682 2°55.852 15.389305 0.017233 0.09079  
2002-03-20 09:16:32 51°13.683 2°55.85 15.389305 0.017233 0.09079  
2002-03-20 09:16:37 51°13.685 2°55.848 15.426408 0.017233 0.090793  
2002-03-20 09:16:42 51°13.687 2°55.846 15.439851 0.017233 0.090795  
2002-03-20 09:16:47 51°13.689 2°55.844 15.445859 0.017233 0.090796  
2002-03-20 09:16:52 51°13.691 2°55.841 15.436307 0.017233 0.0908  
2002-03-20 09:16:57 51°13.693 2°55.837 15.436091 0.017233 0.090803  
2002-03-20 09:17:03 51°13.696 2°55.832 15.436091 0.017233 0.090803  
2002-03-20 09:17:08 51°13.699 2°55.826 15.434319 0.017233 0.090806  
2002-03-20 09:17:13 51°13.702 2°55.821 15.46794 0.017233 0.090808  
2002-03-20 09:17:17 51°13.705 2°55.816 15.478352 0.017233 0.09081  
2002-03-20 09:17:22 51°13.708 2°55.81 15.483449 0.017233 0.090813  
2002-03-20 09:17:27 51°13.712 2°55.803 15.489151 0.017233 0.090815  
2002-03-20 09:17:33 51°13.716 2°55.795 15.489151 0.017233 0.090815  
2002-03-20 09:17:37 51°13.719 2°55.789 15.494463 0.017233 0.090818  
2002-03-20 09:17:43 51°13.724 2°55.78 15.490835 0.017233 0.09082  
2002-03-20 09:17:47 51°13.728 2°55.773 15.491137 0.017233 0.090822  
2002-03-20 09:17:52 51°13.732 2°55.765 -999 0.017233 0.090825  
2002-03-20 09:17:57 51°13.737 2°55.757 12.104987 0.017233 0.090954  
2002-03-20 09:18:02 51°13.742 2°55.749 12.104987 0.017233 0.090954  
2002-03-20 09:18:07 51°13.747 2°55.74 11.490643 0.017233 0.091104  
2002-03-20 09:18:13 51°13.753 2°55.73 11.028252 3.073841 21.460517  
2002-03-20 09:18:17 51°13.757 2°55.723 10.646092 3.033918 22.30403  
2002-03-20 09:18:22 51°13.762 2°55.714 10.501223 3.095407 23.847606  
2002-03-20 09:18:27 51°13.768 2°55.706 10.255011 2.648872 21.200929  
2002-03-20 09:18:32 51°13.774 2°55.697 10.255011 2.648872 21.200929  
2002-03-20 09:18:38 51°13.781 2°55.686 10.575278 2.341884 19.096814  
2002-03-20 09:18:42 51°13.786 2°55.679 10.424754 2.195874 18.248192  
2002-03-20 09:18:47 51°13.792 2°55.67 10.268231 2.081384 17.481129  
2002-03-20 09:18:52 51°13.799 2°55.662 10.539052 2.002283 16.926703  
2002-03-20 09:18:57 51°13.806 2°55.654 10.117888 1.923798 16.327686  
2002-03-20 09:19:02 51°13.812 2°55.647 10.117888 1.923798 16.327686  
2002-03-20 09:19:07 51°13.819 2°55.641 9.941008 1.894347 16.12235  
2002-03-20 09:19:13 51°13.827 2°55.633 10.246087 1.886561 16.11412  
2002-03-20 09:19:17 51°13.833 2°55.628 10.338818 1.892052 16.201529  
2002-03-20 09:19:21 51°13.838 2°55.624 9.964241 1.89375 16.25241  
2002-03-20 09:19:27 51°13.847 2°55.617 10.343484 1.88786 16.224362  
2002-03-20 09:19:32 51°13.854 2°55.611 10.343484 1.88786 16.224362  
2002-03-20 09:19:37 51°13.862 2°55.606 10.11873 1.879674 16.17289  
2002-03-20 09:19:42 51°13.871 2°55.6 10.199579 1.851424 15.919413  
2002-03-20 09:19:47 51°13.879 2°55.594 10.104122 1.824574 15.677708  
2002-03-20 09:19:52 51°13.888 2°55.589 10.092508 1.808006 15.533659  
2002-03-20 09:19:57 51°13.897 2°55.583 10.12182 1.827169 15.724409  
2002-03-20 09:20:03 51°13.909 2°55.575 10.12182 1.827169 15.724409  
2002-03-20 09:20:07 51°13.917 2°55.57 10.082719 1.854519 15.988535  
2002-03-20 09:20:12 51°13.927 2°55.563 9.809008 1.893751 16.3756  
2002-03-20 09:20:17 51°13.938 2°55.555 10.405553 1.935884 16.792573  
2002-03-20 09:20:22 51°13.948 2°55.548 9.936031 1.971931 17.148271  
2002-03-20 09:20:27 51°13.959 2°55.541 9.887751 2.00209 17.439341  
2002-03-20 09:20:32 51°13.97 2°55.533 9.887751 2.00209 17.439341  
2002-03-20 09:20:37 51°13.981 2°55.525 9.804727 2.006884 17.497655  
2002-03-20 09:20:42 51°13.992 2°55.518 10.136191 2.030554 17.728243  
2002-03-20 09:20:47 51°14.004 2°55.51 10.256273 2.040242 17.829529  
2002-03-20 09:20:52 51°14.015 2°55.503 9.943402 2.064514 18.06616  
2002-03-20 09:20:57 51°14.026 2°55.496 10.099533 2.09558 18.372884  
2002-03-20 09:21:03 51°14.039 2°55.487 10.099533 2.09558 18.372884  
2002-03-20 09:21:07 51°14.048 2°55.481 10.081641 2.123851 18.64979  
2002-03-20 09:21:12 51°14.059 2°55.473 10.158606 2.14683 18.875993  
2002-03-20 09:21:17 51°14.069 2°55.466 10.156454 2.174606 19.148784  
2002-03-20 09:21:22 51°14.08 2°55.458 9.753808 2.201286 19.411116  
2002-03-20 09:21:26 51°14.088 2°55.451 10.004492 2.229066 19.681899  
2002-03-20 09:21:32 51°14.1 2°55.441 10.004492 2.229066 19.681899  
2002-03-20 09:21:37 51°14.11 2°55.433 10.310163 2.256749 19.952664  
2002-03-20 09:21:43 51°14.122 2°55.423 9.803269 2.277837 20.163247  
2002-03-20 09:21:47 51°14.13 2°55.417 9.82989 2.298826 20.369039  
2002-03-20 09:21:53 51°14.142 2°55.407 10.214914 2.317918 20.559493  
2002-03-20 09:21:57 51°14.15 2°55.4 10.438313 2.315019 20.536983  
2002-03-20 09:22:03 51°14.162 2°55.388 10.438313 2.315019 20.536983  
2002-03-20 09:22:07 51°14.17 2°55.381 10.288033 2.327514 20.659335  
2002-03-20 09:22:13 51°14.181 2°55.368 10.131089 2.330712 20.689956  
2002-03-20 09:22:17 51°14.189 2°55.359 9.899684 2.327114 20.658759  
2002-03-20 09:22:23 51°14.201 2°55.346 9.904146 2.326614 20.652482  
2002-03-20 09:22:27 51°14.208 2°55.336 9.643455 2.319717 20.592994  
2002-03-20 09:22:32 51°14.218 2°55.324 9.643455 2.319717 20.592994  
2002-03-20 09:22:37 51°14.228 2°55.312 10.198737 2.323915 20.637591  
2002-03-20 09:22:42 51°14.237 2°55.299 10.216644 2.322216 20.622956  
2002-03-20 09:22:47 51°14.246 2°55.286 10.115266 2.322916 20.632598  
2002-03-20 09:22:52 51°14.255 2°55.272 10.195698 2.307523 20.486224  
2002-03-20 09:22:57 51°14.264 2°55.258 10.275845 2.299726 20.409523  
2002-03-20 09:23:03 51°14.274 2°55.241 10.275845 2.299726 20.409523  
2002-03-20 09:23:07 51°14.281 2°55.23 10.083609 2.266344 20.081792  
2002-03-20 09:23:12 51°14.289 2°55.215 10.192846 2.242158 19.840145  
2002-03-20 09:23:17 51°14.298 2°55.2 9.96119 2.190294 19.334772  
2002-03-20 09:23:23 51°14.308 2°55.183 10.040219 2.152526 18.965822  
2002-03-20 09:23:27 51°14.314 2°55.171 10.077706 2.126649 18.712957  
2002-03-20 09:23:33 51°14.324 2°55.152 10.077706 2.126649 18.712957  
2002-03-20 09:23:37 51°14.331 2°55.14 10.0778 2.110965 18.561374  
2002-03-20 09:23:42 51°14.339 2°55.125 10.005618 2.101175 18.466515  
2002-03-20 09:23:47 51°14.346 2°55.11 9.930022 2.096379 18.422175  
2002-03-20 09:23:53 51°14.355 2°55.091 10.353234 2.09558 18.414504  
2002-03-20 09:23:58 51°14.362 2°55.075 10.119152 2.095381 18.413851  
2002-03-20 09:24:03 51°14.368 2°55.058 10.119152 2.095381 18.413851  
2002-03-20 09:24:07 51°14.372 2°55.044 10.34535 2.093582 18.396593  
2002-03-20 09:24:12 51°14.377 2°55.026 9.946171 2.088488 18.347284  
2002-03-20 09:24:17 51°14.38 2°55.008 9.791272 2.083393 18.297992  
2002-03-20 09:24:23 51°14.384 2°54.986 9.985636 2.074203 18.211118  
2002-03-20 09:24:27 51°14.385 2°54.971 9.996331 2.0768 18.23602  
2002-03-20 09:24:32 51°14.387 2°54.953 9.996331 2.0768 18.23602  
2002-03-20 09:24:37 51°14.388 2°54.934 10.15374 2.08629 18.328297  
2002-03-20 09:24:42 51°14.388 2°54.915 10.154816 2.106269 18.52179  
2002-03-20 09:24:47 51°14.389 2°54.895 10.073209 2.132544 18.778662  
2002-03-20 09:24:52 51°14.389 2°54.875 10.316044 2.149928 18.950352  
2002-03-20 09:24:57 51°14.389 2°54.854 9.82721 2.149329 18.945011  
2002-03-20 09:25:03 51°14.39 2°54.827 9.82721 2.149329 18.945011  
2002-03-20 09:25:07 51°14.39 2°54.81 9.644021 2.139437 18.848458  
2002-03-20 09:25:13 51°14.39 2°54.782 10.080423 2.131345 18.767986  
2002-03-20 09:25:17 51°14.39 2°54.764 9.670094 2.128747 18.742995  
2002-03-20 09:25:22 51°14.39 2°54.741 9.654112 2.156322 19.01022  
2002-03-20 09:25:27 51°14.388 2°54.718 9.835956 2.218874 19.619815  
2002-03-20 09:25:32 51°14.386 2°54.694 9.835956 2.218874 19.619815  
2002-03-20 09:25:37 51°14.384 2°54.671 9.935468 2.298027 20.400029  
2002-03-20 09:25:42 51°14.381 2°54.647 9.595948 2.376497 21.178747  
2002-03-20 09:25:48 51°14.378 2°54.619 9.67297 2.470182 22.111987  
2002-03-20 09:25:53 51°14.373 2°54.596 9.668633 2.57739 23.179731  
2002-03-20 09:25:57 51°14.369 2°54.577 9.816957 2.681323 24.223946  
2002-03-20 09:26:02 51°14.364 2°54.555 9.816957 2.681323 24.223946  
2002-03-20 09:26:07 51°14.357 2°54.532 9.500075 2.769169 25.108857  
2002-03-20 09:26:13 51°14.35 2°54.505 9.770566 2.834314 25.770721  
2002-03-20 09:26:17 51°14.345 2°54.487 10.043078 2.884754 26.279552  
2002-03-20 09:26:23 51°14.337 2°54.46 9.761999 2.9366 26.804488  
2002-03-20 09:26:28 51°14.331 2°54.436 9.676269 2.978642 27.231277  
2002-03-20 09:26:32 51°14.326 2°54.417 9.676269 2.978642 27.231277  
2002-03-20 09:26:37 51°14.321 2°54.394 9.486367 3.022088 27.673203  
2002-03-20 09:26:42 51°14.315 2°54.37 9.760022 3.058529 28.049694  
2002-03-20 09:26:47 51°14.309 2°54.346 9.515623 3.088164 28.353372  
2002-03-20 09:26:52 51°14.303 2°54.322 9.702377 3.107889 28.554884  
2002-03-20 09:26:57 51°14.297 2°54.298 9.703225 3.128415 28.766073  
2002-03-20 09:27:03 51°14.29 2°54.269 9.703225 3.128415 28.766073  
2002-03-20 09:27:07 51°14.285 2°54.25 9.652414 3.148541 28.976108  
2002-03-20 09:27:12 51°14.279 2°54.226 9.729228 3.165163 29.146675  
2002-03-20 09:27:17 51°14.273 2°54.201 9.801999 3.188195 29.382728  
2002-03-20 09:27:23 51°14.265 2°54.172 9.617088 3.217035 29.679726  
2002-03-20 09:27:27 51°14.261 2°54.152 9.95997 3.241571 29.937304  
2002-03-20 09:27:32 51°14.254 2°54.128 9.95997 3.241571 29.937304  
2002-03-20 09:27:37 51°14.247 2°54.103 9.847569 3.261501 30.145345  
2002-03-20 09:27:43 51°14.239 2°54.074 9.651236 3.280229 30.342725  
2002-03-20 09:27:47 51°14.233 2°54.055 9.843855 3.294552 30.493743  
2002-03-20 09:27:53 51°14.225 2°54.025 9.724 3.299359 30.541631  
2002-03-20 09:27:57 51°14.218 2°54.005 9.798941 3.308974 30.643805  
2002-03-20 09:28:03 51°14.21 2°53.975 9.798941 3.308974 30.643805  
2002-03-20 09:28:07 51°14.204 2°53.955 9.762093 3.314383 30.702151  
2002-03-20 09:28:13 51°14.195 2°53.925 10.031922 3.315885 30.717573  
2002-03-20 09:28:17 51°14.188 2°53.905 9.640955 3.315184 30.710376  
2002-03-20 09:28:22 51°14.18 2°53.88 9.639541 3.315284 30.713535  
2002-03-20 09:28:27 51°14.17 2°53.855 9.87342 3.316686 30.729352  
2002-03-20 09:28:33 51°14.16 2°53.824 9.87342 3.316686 30.729352  
2002-03-20 09:28:37 51°14.153 2°53.803 9.792636 3.315184 30.715349  
2002-03-20 09:28:43 51°14.141 2°53.773 9.687439 3.315284 30.718509  
2002-03-20 09:28:47 51°14.134 2°53.752 9.598969 3.314783 30.714078  
2002-03-20 09:28:53 51°14.123 2°53.72 10.02067 3.320593 30.775157  
2002-03-20 09:28:57 51°14.115 2°53.699 9.757244 3.308373 30.652527  
2002-03-20 09:29:02 51°14.106 2°53.673 9.757244 3.308373 30.652527  
2002-03-20 09:29:07 51°14.097 2°53.646 9.985261 3.311378 30.681955  
2002-03-20 09:29:12 51°14.088 2°53.62 9.789296 3.331009 30.884314  
2002-03-20 09:29:17 51°14.079 2°53.593 9.713213 3.333413 30.909734  
2002-03-20 09:29:23 51°14.068 2°53.56 9.59307 3.340024 30.979838  
2002-03-20 09:29:27 51°14.061 2°53.539 9.433305 3.342027 31.00187  
2002-03-20 09:29:32 51°14.051 2°53.512 9.433305 3.342027 31.00187  
2002-03-20 09:29:37 51°14.042 2°53.485 9.517465 3.345533 31.037922  
2002-03-20 09:29:43 51°14.031 2°53.453 9.396581 3.34954 31.08057  
2002-03-20 09:29:47 51°14.023 2°53.431 9.32435 3.355349 31.143945  
2002-03-20 09:29:53 51°14.012 2°53.399 9.546754 3.360458 31.197243  
2002-03-20 09:29:57 51°14.005 2°53.377 9.395776 3.365065 31.244677  
2002-03-20 09:30:01 51°13.997 2°53.355 9.395776 3.365065 31.244677  
2002-03-20 09:30:07 51°13.987 2°53.322 9.281778 3.370675 31.305335  
2002-03-20 09:30:12 51°13.977 2°53.295 9.366798 3.372678 31.326694  
2002-03-20 09:30:17 51°13.968 2°53.268 9.682019 3.37979 31.400688  
2002-03-20 09:30:22 51°13.958 2°53.241 9.869942 3.383096 31.432567  
2002-03-20 09:30:27 51°13.95 2°53.214 9.713213 3.389506 31.49718  
2002-03-20 09:30:33 51°13.938 2°53.181 9.713213 3.389506 31.49718  
2002-03-20 09:30:37 51°13.931 2°53.159 9.831207 3.396017 31.562839  
2002-03-20 09:30:43 51°13.92 2°53.126 9.563518 3.39772 31.578933  
2002-03-20 09:30:47 51°13.911 2°53.105 9.489345 3.399323 31.593264  
2002-03-20 09:30:51 51°13.905 2°53.082 9.408273 3.401226 31.610691  
2002-03-20 09:30:57 51°13.893 2°53.05 9.953165 3.406636 31.666469  
2002-03-20 09:31:02 51°13.883 2°53.023 9.953165 3.406636 31.666469  
2002-03-20 09:31:07 51°13.874 2°52.995 9.909313 3.409941 31.700563  
2002-03-20 09:31:12 51°13.865 2°52.968 9.61053 3.412145 31.724763  
2002-03-20 09:31:17 51°13.856 2°52.941 9.876803 3.418055 31.785004  
2002-03-20 09:31:23 51°13.844 2°52.908 9.947955 3.420259 31.807745  
2002-03-20 09:31:27 51°13.837 2°52.886 9.6889 3.426069 31.868448  
2002-03-20 09:31:32 51°13.828 2°52.859 9.6889 3.426069 31.868448  
2002-03-20 09:31:37 51°13.819 2°52.831 9.753996 3.428474 31.891789  
2002-03-20 09:31:43 51°13.807 2°52.798 9.370113 3.43228 31.931088  
2002-03-20 09:31:47 51°13.8 2°52.776 9.906495 3.434484 31.954584  
2002-03-20 09:31:53 51°13.789 2°52.743 9.674902 3.439794 32.010897  
2002-03-20 09:31:57 51°13.781 2°52.721 9.872292 3.442498 32.04032  
2002-03-20 09:32:03 51°13.77 2°52.689 9.872292 3.442498 32.04032  
2002-03-20 09:32:08 51°13.761 2°52.661 9.599629 3.446405 32.080684  
2002-03-20 09:32:13 51°13.752 2°52.634 9.567626 3.446706 32.086019  
2002-03-20 09:32:17 51°13.744 2°52.612 9.760445 3.45442 32.167231  
2002-03-20 09:32:21 51°13.736 2°52.59 9.876052 3.458327 32.208369  
2002-03-20 09:32:27 51°13.725 2°52.557 9.683669 3.461032 32.237831  
2002-03-20 09:32:32 51°13.716 2°52.53 9.683669 3.461032 32.237831  
2002-03-20 09:32:37 51°13.706 2°52.502 10.110631 3.461332 32.240192  
2002-03-20 09:32:43 51°13.695 2°52.47 9.726637 3.464838 32.277949  
2002-03-20 09:32:48 51°13.686 2°52.443 9.841927 3.465139 32.28031  
2002-03-20 09:32:53 51°13.677 2°52.415 9.689796 3.466041 32.288888  
2002-03-20 09:32:57 51°13.669 2°52.393 9.840846 3.466141 32.289176  
2002-03-20 09:33:03 51°13.658 2°52.36 9.840846 3.466141 32.289176  
2002-03-20 09:33:07 51°13.65 2°52.338 9.796824 3.47095 32.338918  
2002-03-20 09:33:12 51°13.641 2°52.311 9.873843 3.468245 32.310188  
2002-03-20 09:33:18 51°13.63 2°52.278 10.067306 3.473254 32.361257  
2002-03-20 09:33:22 51°13.623 2°52.256 9.802375 3.47696 32.397358  
2002-03-20 09:33:27 51°13.613 2°52.229 9.644681 3.47666 32.3965  
2002-03-20 09:33:32 51°13.604 2°52.201 9.644681 3.47666 32.3965  
2002-03-20 09:33:37 51°13.594 2°52.174 9.799035 3.478062 32.411013  
2002-03-20 09:33:43 51°13.583 2°52.141 9.681124 3.479766 32.432394  
2002-03-20 09:33:47 51°13.576 2°52.119 9.830172 3.483973 32.4767  
2002-03-20 09:33:52 51°13.566 2°52.092 9.792589 3.48217 32.455777  
2002-03-20 09:33:57 51°13.557 2°52.064 9.829044 3.48788 32.514892  
2002-03-20 09:34:03 51°13.546 2°52.031 9.829044 3.48788 32.514892  
2002-03-20 09:34:07 51°13.538 2°52.009 10.060793 3.48768 32.515077  
2002-03-20 09:34:12 51°13.53 2°51.981 9.476014 3.490485 32.54337  
2002-03-20 09:34:17 51°13.52 2°51.954 9.744674 3.491688 32.557328  
2002-03-20 09:34:23 51°13.509 2°51.921 9.554783 3.495795 32.602136  
2002-03-20 09:34:28 51°13.5 2°51.893 9.664343 3.497198 32.618177  
2002-03-20 09:34:32 51°13.492 2°51.871 9.664343 3.497198 32.618177  
2002-03-20 09:34:37 51°13.483 2°51.843 10.010823 3.497799 32.625917  
2002-03-20 09:34:43 51°13.472 2°51.81 9.780214 3.501706 32.667916  
2002-03-20 09:34:47 51°13.464 2°51.789 9.782143 3.500103 32.652062  
2002-03-20 09:34:52 51°13.455 2°51.761 9.899825 3.505613 32.71296  
2002-03-20 09:34:57 51°13.446 2°51.734 9.898556 3.505213 32.709564  
2002-03-20 09:35:02 51°13.436 2°51.707 9.898556 3.505213 32.709564  
2002-03-20 09:35:08 51°13.426 2°51.673 9.786378 3.505513 32.714954  
2002-03-20 09:35:12 51°13.418 2°51.652 9.93974 3.507217 32.734889  
2002-03-20 09:35:17 51°13.408 2°51.625 9.743026 3.506014 32.722424  
2002-03-20 09:35:22 51°13.399 2°51.597 9.703461 3.50912 32.753868  
2002-03-20 09:35:27 51°13.389 2°51.57 9.512031 3.508519 32.746875  
2002-03-20 09:35:32 51°13.38 2°51.542 9.512031 3.508519 32.746875  
2002-03-20 09:35:37 51°13.371 2°51.515 9.820673 3.508419 32.745836  
2002-03-20 09:35:43 51°13.36 2°51.482 9.82199 3.508419 32.744318  
2002-03-20 09:35:47 51°13.352 2°51.461 9.855184 3.509821 32.758102  
2002-03-20 09:35:52 51°13.343 2°51.433 9.311221 3.506615 32.727139  
2002-03-20 09:35:57 51°13.334 2°51.405 9.853398 3.509821 32.761899  
2002-03-20 09:36:03 51°13.323 2°51.372 9.853398 3.509821 32.761899  
2002-03-20 09:36:07 51°13.315 2°51.35 9.856124 3.50902 32.754347  
2002-03-20 09:36:13 51°13.304 2°51.317 9.353252 3.510623 32.770211  
2002-03-20 09:36:17 51°13.296 2°51.295 9.816816 3.509521 32.761061  
2002-03-20 09:36:23 51°13.285 2°51.263 9.392368 3.510623 32.77401  
2002-03-20 09:36:27 51°13.278 2°51.241 9.350978 3.509321 32.760502  
2002-03-20 09:36:32 51°13.268 2°51.213 9.350978 3.509321 32.760502  
2002-03-20 09:36:37 51°13.259 2°51.186 9.354294 3.50912 32.759184  
2002-03-20 09:36:42 51°13.25 2°51.159 9.353015 3.50902 32.758905  
2002-03-20 09:36:47 51°13.241 2°51.131 9.627041 3.510723 32.775809  
2002-03-20 09:36:52 51°13.231 2°51.104 9.470245 3.510122 32.770335  
2002-03-20 09:36:57 51°13.222 2°51.076 9.356804 3.510623 32.77629  
2002-03-20 09:37:03 51°13.211 2°51.043 9.356804 3.510623 32.77629  
2002-03-20 09:37:07 51°13.203 2°51.021 9.510897 3.511024 32.780447  
2002-03-20 09:37:12 51°13.194 2°50.994 9.627985 3.510523 32.774491  
2002-03-20 09:37:17 51°13.185 2°50.966 9.82025 3.509821 32.767217  
2002-03-20 09:37:22 51°13.175 2°50.939 9.667124 3.50902 32.758905  
2002-03-20 09:37:27 51°13.166 2°50.912 9.786378 3.509821 32.766457  
2002-03-20 09:37:32 51°13.157 2°50.885 9.786378 3.509821 32.766457  
2002-03-20 09:37:37 51°13.147 2°50.857 9.786661 3.50912 32.758424  
2002-03-20 09:37:43 51°13.135 2°50.825 9.707136 3.509922 32.767497  
2002-03-20 09:37:47 51°13.128 2°50.802 9.551996 3.508519 32.75295  
2002-03-20 09:37:52 51°13.119 2°50.775 9.629777 3.508419 32.751151  
2002-03-20 09:37:58 51°13.108 2°50.742 9.972969 3.507617 32.742081  
2002-03-20 09:38:03 51°13.098 2°50.715 9.972969 3.507617 32.742081  
2002-03-20 09:38:07 51°13.091 2°50.693 9.816158 3.507818 32.743399  
2002-03-20 09:38:13 51°13.08 2°50.66 9.849825 3.506816 32.73301  
2002-03-20 09:38:17 51°13.073 2°50.638 9.771884 3.507718 32.741601  
2002-03-20 09:38:22 51°13.064 2°50.61 9.611945 3.506816 32.73301  
2002-03-20 09:38:27 51°13.055 2°50.582 9.722916 3.506215 32.729054  
2002-03-20 09:38:32 51°13.047 2°50.554 9.722916 3.506215 32.729054  
2002-03-20 09:38:37 51°13.038 2°50.526 9.683669 3.50351 32.701764  
2002-03-20 09:38:42 51°13.03 2°50.498 9.373049 3.504211 32.711311  
2002-03-20 09:38:47 51°13.021 2°50.471 9.795553 3.508219 32.755909  
2002-03-20 09:38:52 51°13.012 2°50.442 9.716981 3.506716 32.741841  
2002-03-20 09:38:57 51°13.004 2°50.414 9.719337 3.504311 32.719938  
2002-03-20 09:39:03 51°12.993 2°50.381 9.719337 3.504311 32.719938  
2002-03-20 09:39:07 51°12.987 2°50.358 9.795271 3.503109 32.711262  
2002-03-20 09:39:12 51°12.978 2°50.331 9.872621 3.504211 32.72725  
2002-03-20 09:39:17 51°12.969 2°50.303 9.488589 3.502208 32.70798  
2002-03-20 09:39:23 51°12.959 2°50.269 9.680323 3.504011 32.728208  
2002-03-20 09:39:27 51°12.952 2°50.247 9.562763 3.504211 32.730287  
2002-03-20 09:39:32 51°12.943 2°50.219 9.562763 3.504211 32.730287  
2002-03-20 09:39:37 51°12.934 2°50.191 9.603593 3.502308 32.710538  
2002-03-20 09:39:42 51°12.926 2°50.163 9.914009 3.500404 32.692307  
2002-03-20 09:39:47 51°12.917 2°50.135 9.527482 3.500003 32.688149  
2002-03-20 09:39:53 51°12.906 2°50.101 9.454876 3.499703 32.68579  
2002-03-20 09:39:58 51°12.897 2°50.073 9.727155 3.496798 32.654134  
2002-03-20 09:40:03 51°12.889 2°50.045 9.727155 3.496798 32.654134  
2002-03-20 09:40:07 51°12.882 2°50.022 9.769436 3.497699 32.664245  
2002-03-20 09:40:13 51°12.872 2°49.989 10.037266 3.498701 32.673122  
2002-03-20 09:40:17 51°12.865 2°49.967 9.654913 3.4979 32.664808  
2002-03-20 09:40:23 51°12.854 2°49.933 9.462112 3.496497 32.649502  
2002-03-20 09:40:27 51°12.847 2°49.911 9.925139 3.497399 32.658096  
2002-03-20 09:40:32 51°12.838 2°49.884 9.925139 3.497399 32.658096  
2002-03-20 09:40:37 51°12.829 2°49.856 9.617512 3.497298 32.654784  
2002-03-20 09:40:43 51°12.817 2°49.823 9.543543 3.494694 32.625499  
2002-03-20 09:40:47 51°12.81 2°49.801 9.73568 3.495194 32.629179  
2002-03-20 09:40:52 51°12.801 2°49.773 9.504612 3.494794 32.625781  
2002-03-20 09:40:57 51°12.791 2°49.746 9.310368 3.493792 32.61388  
2002-03-20 09:41:03 51°12.781 2°49.712 9.310368 3.493792 32.61388  
2002-03-20 09:41:07 51°12.774 2°49.69 9.388059 3.49269 32.601698  
2002-03-20 09:41:11 51°12.767 2°49.667 9.506408 3.491488 32.589234  
2002-03-20 09:41:17 51°12.756 2°49.634 9.780778 3.489183 32.563836  
2002-03-20 09:41:22 51°12.748 2°49.605 9.586037 3.485577 32.526455  
2002-03-20 09:41:27 51°12.739 2°49.578 9.547179 3.49279 32.600467  
2002-03-20 09:41:32 51°12.73 2°49.549 9.547179 3.49279 32.600467  
2002-03-20 09:41:37 51°12.722 2°49.521 9.625862 3.491588 32.588005  
2002-03-20 09:41:42 51°12.713 2°49.493 9.396155 3.489784 32.569312  
2002-03-20 09:41:47 51°12.704 2°49.464 9.199259 3.487981 32.54911  
2002-03-20 09:41:52 51°12.696 2°49.436 9.23804 3.488783 32.555907  
2002-03-20 09:41:57 51°12.687 2°49.408 9.277795 3.486679 32.533349  
2002-03-20 09:42:02 51°12.678 2°49.38 9.277795 3.486679 32.533349  
2002-03-20 09:42:07 51°12.669 2°49.352 9.319563 3.48738 32.539862  
2002-03-20 09:42:13 51°12.659 2°49.318 9.122529 3.484875 32.5124  
2002-03-20 09:42:17 51°12.652 2°49.295 9.549682 3.487781 32.542505  
2002-03-20 09:42:22 51°12.645 2°49.269 9.433873 3.489684 32.562986  
2002-03-20 09:42:27 51°12.638 2°49.244 9.509952 3.489384 32.560626  
2002-03-20 09:42:32 51°12.631 2°49.221 9.509952 3.489384 32.560626  
2002-03-20 09:42:36 51°12.626 2°49.203 9.660194 3.489384 32.559116  
2002-03-20 09:42:42 51°12.619 2°49.178 9.66175 3.489584 32.561193  
2002-03-20 09:42:47 51°12.615 2°49.158 9.890288 3.489484 32.559399  
2002-03-20 09:42:52 51°12.611 2°49.14 9.734785 3.488783 32.553642  
2002-03-20 09:42:56 51°12.609 2°49.125 9.266507 3.488782 32.552887  
2002-03-20 09:43:03 51°12.604 2°49.102 9.266507 3.488782 32.552887  
2002-03-20 09:43:07 51°12.602 2°49.089 9.539717 3.488282 32.54996  
2002-03-20 09:43:12 51°12.6 2°49.074 9.303305 3.488081 32.547884  
2002-03-20 09:43:17 51°12.599 2°49.059 9.416839 3.488382 32.551754  
2002-03-20 09:43:23 51°12.597 2°49.042 9.61152 3.488482 32.554302  
2002-03-20 09:43:27 51°12.596 2°49.031 9.41788 3.488482 32.554302  
2002-03-20 09:43:32 51°12.595 2°49.018 9.41788 3.488482 32.554302  
2002-03-20 09:43:37 51°12.594 2°49.005 9.61152 3.488482 32.558833  
2002-03-20 09:43:43 51°12.593 2°48.991 9.608406 3.488883 32.563742  
2002-03-20 09:43:47 51°12.593 2°48.982 9.454876 3.489183 32.569125  
2002-03-20 09:43:53 51°12.592 2°48.97 9.56994 3.489183 32.56988  
2002-03-20 09:43:57 51°12.592 2°48.964 9.687298 3.488983 32.569314  
2002-03-20 09:44:03 51°12.591 2°48.956 9.687298 3.488983 32.569314  
2002-03-20 09:44:08 51°12.59 2°48.952 9.840329 3.488983 32.570826  
2002-03-20 09:44:13 51°12.59 2°48.949 9.608076 3.489484 32.576775  
2002-03-20 09:44:17 51°12.59 2°48.948 9.800399 3.489183 32.575171  
2002-03-20 09:44:23 51°12.589 2°48.949 9.645766 3.489484 32.577531  
2002-03-20 09:44:27 51°12.589 2°48.951 9.334964 3.490185 32.585559  
2002-03-20 09:44:33 51°12.588 2°48.953 9.334964 3.490185 32.585559  
2002-03-20 09:44:38 51°12.588 2°48.954 9.604395 3.488482 32.567143  
2002-03-20 09:44:43 51°12.587 2°48.955 9.523561 3.489785 32.581404  
2002-03-20 09:44:48 51°12.587 2°48.956 9.560166 3.489985 32.584237  
2002-03-20 09:44:53 51°12.586 2°48.956 9.900576 3.490185 32.586315  
2002-03-20 09:44:58 51°12.585 2°48.955 9.739588 3.489885 32.586223  
2002-03-20 09:45:03 51°12.585 2°48.953 9.739588 3.489885 32.586223  
2002-03-20 09:45:07 51°12.585 2°48.951 9.111024 3.489985 32.587262  
2002-03-20 09:45:12 51°12.585 2°48.949 9.999802 3.489985 32.587262  
2002-03-20 09:45:17 51°12.584 2°48.947 9.956028 3.490185 32.591609  
2002-03-20 09:45:23 51°12.584 2°48.944 9.42053 3.490987 32.602192  
2002-03-20 09:45:27 51°12.583 2°48.942 8.676939 3.491588 32.613726  
2002-03-20 09:45:33 51°12.583 2°48.94 8.676939 3.491588 32.613726  
2002-03-20 09:45:38 51°12.583 2°48.938 8.668897 3.49249 32.629141  
2002-03-20 09:45:43 51°12.582 2°48.936 8.668849 3.49249 32.63672  
2002-03-20 09:45:48 51°12.582 2°48.934 8.677944 3.49259 32.642308  
2002-03-20 09:45:53 51°12.581 2°48.932 8.723401 3.493392 32.651387  
2002-03-20 09:45:58 51°12.581 2°48.931 8.687421 3.49259 32.643825  
2002-03-20 09:46:03 51°12.581 2°48.929 8.687421 3.49259 32.643825  
2002-03-20 09:46:07 51°12.581 2°48.928 8.729237 3.493191 32.648549  
2002-03-20 09:46:12 51°12.58 2°48.926 8.690914 3.49259 32.643067  
2002-03-20 09:46:17 51°12.58 2°48.925 8.693212 3.492189 32.638148  
2002-03-20 09:46:22 51°12.58 2°48.924 8.693164 3.489785 32.610918  
2002-03-20 09:46:28 51°12.579 2°48.922 8.691106 3.488883 32.598531  
2002-03-20 09:46:33 51°12.579 2°48.921 8.691106 3.488883 32.598531  
2002-03-20 09:46:37 51°12.578 2°48.92 8.693642 3.487481 32.578679  
2002-03-20 09:46:42 51°12.579 2°48.919 8.695987 3.486479 32.566017  
2002-03-20 09:46:47 51°12.578 2°48.918 8.694791 3.485677 32.555435  
2002-03-20 09:46:52 51°12.578 2°48.917 8.693594 3.485377 32.550806  
2002-03-20 09:46:57 51°12.577 2°48.916 8.732058 3.485477 32.551089  
2002-03-20 09:47:03 51°12.577 2°48.915 8.732058 3.485477 32.551089  
2002-03-20 09:47:07 51°12.577 2°48.914 8.69168 3.486479 32.561481  
2002-03-20 09:47:12 51°12.576 2°48.913 8.693738 3.486579 32.561764  
2002-03-20 09:47:17 51°12.576 2°48.912 8.733111 3.486579 32.561764  
2002-03-20 09:47:22 51°12.576 2°48.912 8.694743 3.486378 32.558174  
2002-03-20 09:47:27 51°12.576 2°48.911 8.692159 3.48748 32.57036  
2002-03-20 09:47:32 51°12.575 2°48.91 8.692159 3.48748 32.57036  
2002-03-20 09:47:37 51°12.575 2°48.909 8.771742 3.487881 32.575273  
2002-03-20 09:47:42 51°12.575 2°48.909 8.693355 3.487581 32.572911  
2002-03-20 09:47:47 51°12.575 2°48.907 8.734545 3.48698 32.566676  
2002-03-20 09:47:52 51°12.575 2°48.906 8.69302 3.48748 32.568848  
2002-03-20 09:47:57 51°12.575 2°48.905 8.733637 3.487881 32.57376  
2002-03-20 09:48:03 51°12.575 2°48.903 8.733637 3.487881 32.57376  
2002-03-20 09:48:07 51°12.575 2°48.901 8.695509 3.487981 32.577068  
2002-03-20 09:48:12 51°12.575 2°48.899 8.696848 3.488482 32.581508  
2002-03-20 09:48:17 51°12.576 2°48.896 8.697997 3.487881 32.576029  
2002-03-20 09:48:22 51°12.576 2°48.894 8.698236 3.48718 32.567999  
2002-03-20 09:48:27 51°12.576 2°48.891 8.700964 3.487881 32.575273  
2002-03-20 09:48:32 51°12.577 2°48.889 8.700964 3.487881 32.575273  
2002-03-20 09:48:37 51°12.577 2°48.886 8.702256 3.489184 32.588783  
2002-03-20 09:48:42 51°12.578 2°48.883 8.702686 3.484976 32.544383  
2002-03-20 09:48:47 51°12.578 2°48.88 8.741384 3.488883 32.582639  
2002-03-20 09:48:52 51°12.579 2°48.878 8.739328 3.488683 32.582074  
2002-03-20 09:48:57 51°12.579 2°48.875 8.699672 3.488683 32.580561  
2002-03-20 09:49:02 51°12.58 2°48.872 8.699672 3.488683 32.580561  
2002-03-20 09:49:07 51°12.58 2°48.869 8.700389 3.488783 32.582357  
2002-03-20 09:49:12 51°12.581 2°48.866 8.698906 3.488082 32.572058  
2002-03-20 09:49:18 51°12.581 2°48.863 8.736889 3.489584 32.586888  
2002-03-20 09:49:22 51°12.582 2°48.86 8.69771 3.489284 32.583771  
2002-03-20 09:49:27 51°12.582 2°48.857 8.69814 3.489484 32.585849  
2002-03-20 09:49:32 51°12.583 2°48.854 8.69814 3.489484 32.585849  
2002-03-20 09:49:37 51°12.583 2°48.851 8.734976 3.485877 32.549956  
2002-03-20 09:49:43 51°12.584 2°48.848 8.732919 3.489785 32.590479  
2002-03-20 09:49:47 51°12.584 2°48.846 8.693882 3.486579 32.557229  
2002-03-20 09:49:52 51°12.585 2°48.843 8.731867 3.489985 32.592557  
2002-03-20 09:49:57 51°12.585 2°48.84 8.730002 3.490085 32.594353  
2002-03-20 09:50:03 51°12.586 2°48.836 8.730002 3.490085 32.594353  
2002-03-20 09:50:08 51°12.586 2°48.833 8.690388 3.490486 32.599266  
2002-03-20 09:50:12 51°12.587 2°48.831 8.728471 3.490286 32.598701  
2002-03-20 09:50:17 51°12.587 2°48.828 8.727563 3.486879 32.564881  
2002-03-20 09:50:23 51°12.588 2°48.824 8.689 3.487681 32.572438  
2002-03-20 09:50:27 51°12.588 2°48.821 8.688857 3.488182 32.58066  
2002-03-20 09:50:32 51°12.588 2°48.818 8.688857 3.488182 32.58066  
2002-03-20 09:50:37 51°12.589 2°48.815 8.688282 3.490586 32.606361  
2002-03-20 09:50:42 51°12.59 2°48.812 8.727515 3.491187 32.612597  
2002-03-20 09:50:47 51°12.59 2°48.809 8.725602 3.491288 32.615151  
2002-03-20 09:50:52 51°12.591 2°48.806 8.688139 3.491187 32.615626  
2002-03-20 09:50:57 51°12.592 2°48.803 8.687756 3.490386 32.605796  
2002-03-20 09:51:02 51°12.592 2°48.8 8.687756 3.490386 32.605796  
2002-03-20 09:51:07 51°12.593 2°48.797 8.727036 3.491388 32.617706  
2002-03-20 09:51:13 51°12.594 2°48.793 8.687708 3.491588 32.620542  
2002-03-20 09:51:17 51°12.595 2°48.791 8.687182 3.489685 32.600034  
2002-03-20 09:51:21 51°12.595 2°48.788 8.722492 3.488883 32.591718  
2002-03-20 09:51:28 51°12.597 2°48.785 8.761991 3.490987 32.613547  
2002-03-20 09:51:32 51°12.598 2°48.782 8.761991 3.490987 32.613547  
2002-03-20 09:51:37 51°12.599 2°48.779 8.686272 3.493091 32.635379  
2002-03-20 09:51:42 51°12.6 2°48.777 8.685889 3.493492 32.640295  
2002-03-20 09:51:47 51°12.601 2°48.774 8.685794 3.49279 32.63226  
2002-03-20 09:51:52 51°12.603 2°48.771 8.723545 3.493291 32.638974  
2002-03-20 09:51:57 51°12.604 2°48.768 8.684023 3.49239 32.631132  
2002-03-20 09:52:02 51°12.605 2°48.765 8.684023 3.49239 32.631132  
2002-03-20 09:52:07 51°12.607 2°48.763 8.683736 3.494093 32.64805  
2002-03-20 09:52:12 51°12.608 2°48.76 8.682012 3.494093 32.648808  
2002-03-20 09:52:17 51°12.609 2°48.757 8.68163 3.494293 32.650887  
2002-03-20 09:52:23 51°12.611 2°48.754 8.799459 3.494594 32.653249  
2002-03-20 09:52:27 51°12.612 2°48.752 8.799698 3.494293 32.650887  
2002-03-20 09:52:32 51°12.614 2°48.75 8.799698 3.494293 32.650887  
2002-03-20 09:52:37 51°12.615 2°48.747 8.718283 3.493892 32.647487  
2002-03-20 09:52:42 51°12.617 2°48.745 8.717326 3.494694 32.655047  
2002-03-20 09:52:47 51°12.619 2°48.743 8.678758 3.494994 32.658925  
2002-03-20 09:52:52 51°12.62 2°48.74 8.676364 3.493792 32.648721  
2002-03-20 09:52:57 51°12.622 2°48.738 8.674019 3.494393 32.654202  
2002-03-20 09:53:02 51°12.623 2°48.736 8.674019 3.494393 32.654202  
2002-03-20 09:53:07 51°12.625 2°48.734 8.710724 3.494994 32.660442  
2002-03-20 09:53:12 51°12.626 2°48.732 8.670524 3.49269 32.638799  
2002-03-20 09:53:17 51°12.628 2°48.731 8.670476 3.493091 32.644475  
2002-03-20 09:53:22 51°12.63 2°48.729 8.669327 3.496698 32.680398  
2002-03-20 09:53:27 51°12.632 2°48.727 8.670811 3.495395 32.668395  
2002-03-20 09:53:33 51°12.634 2°48.725 8.670811 3.495395 32.668395  
2002-03-20 09:53:37 51°12.635 2°48.724 8.670189 3.496898 32.687033  
2002-03-20 09:53:43 51°12.637 2°48.722 8.668753 3.496297 32.68231  
2002-03-20 09:53:47 51°12.639 2°48.721 8.668131 3.496998 32.690352  
2002-03-20 09:53:52 51°12.641 2°48.72 8.668753 3.497499 32.695553  
2002-03-20 09:53:57 51°12.642 2°48.719 8.66904 3.4978 32.698674  
2002-03-20 09:54:02 51°12.644 2°48.718 8.66904 3.4978 32.698674  
2002-03-20 09:54:07 51°12.646 2°48.717 8.675742 3.498 32.702274  
2002-03-20 09:54:12 51°12.648 2°48.716 8.67871 3.4979 32.700474  
2002-03-20 09:54:17 51°12.65 2°48.715 8.715173 3.498301 32.706155  
2002-03-20 09:54:22 51°12.651 2°48.715 8.752286 3.498501 32.709756  
2002-03-20 09:54:27 51°12.653 2°48.714 8.670668 3.498401 32.708716  
2002-03-20 09:54:32 51°12.655 2°48.714 8.670668 3.498401 32.708716  
2002-03-20 09:54:37 51°12.657 2°48.714 8.747887 3.498701 32.710317  
2002-03-20 09:54:43 51°12.659 2°48.713 8.710198 3.498301 32.704636  
2002-03-20 09:54:47 51°12.66 2°48.713 8.666216 3.495696 32.674551  
2002-03-20 09:54:52 51°12.663 2°48.714 8.664444 3.499904 32.718242  
2002-03-20 09:54:58 51°12.665 2°48.714 8.666359 3.499803 32.717961  
2002-03-20 09:55:03 51°12.667 2°48.715 8.666359 3.499803 32.717961  
2002-03-20 09:55:07 51°12.668 2°48.715 8.667365 3.500505 32.726765  
2002-03-20 09:55:12 51°12.67 2°48.716 8.66545 3.500705 32.728846  
2002-03-20 09:55:17 51°12.672 2°48.717 8.664875 3.499603 32.717401  
2002-03-20 09:55:23 51°12.674 2°48.717 8.664684 3.501006 32.733488  
2002-03-20 09:55:27 51°12.675 2°48.719 8.662242 3.501407 32.740693  
2002-03-20 09:55:33 51°12.677 2°48.719 8.662242 3.501407 32.740693  
2002-03-20 09:55:37 51°12.678 2°48.72 8.660135 3.502008 32.746937  
2002-03-20 09:55:43 51°12.681 2°48.721 8.659417 3.501907 32.746657  
2002-03-20 09:55:48 51°12.682 2°48.722 8.657645 3.499403 32.720641  
2002-03-20 09:55:52 51°12.684 2°48.723 8.657119 3.501006 32.737291  
2002-03-20 09:55:57 51°12.685 2°48.725 8.696848 3.501306 32.740413  
2002-03-20 09:56:03 51°12.687 2°48.726 8.696848 3.501306 32.740413  
2002-03-20 09:56:08 51°12.688 2°48.728 8.656783 3.50341 32.764553  
2002-03-20 09:56:12 51°12.69 2°48.729 8.656927 3.504011 32.772321  
2002-03-20 09:56:17 51°12.691 2°48.731 8.657071 3.500906 32.739294  
2002-03-20 09:56:23 51°12.693 2°48.733 8.65798 3.504112 32.774885  
2002-03-20 09:56:27 51°12.694 2°48.734 8.696274 3.504212 32.778212  
2002-03-20 09:56:33 51°12.695 2°48.737 8.696274 3.504212 32.778212  
2002-03-20 09:56:37 51°12.696 2°48.738 8.696514 3.504613 32.781614  
2002-03-20 09:56:42 51°12.698 2°48.74 8.653719 3.505013 32.787302  
2002-03-20 09:56:47 51°12.699 2°48.743 8.651612 3.505514 32.79327  
2002-03-20 09:56:52 51°12.7 2°48.745 8.64984 3.506316 32.800837  
2002-03-20 09:56:57 51°12.701 2°48.747 8.64826 3.507017 32.806601  
2002-03-20 09:57:03 51°12.702 2°48.75 8.64826 3.507017 32.806601  
2002-03-20 09:57:07 51°12.702 2°48.753 8.648212 3.508219 32.819858  
2002-03-20 09:57:12 51°12.703 2°48.755 8.648643 3.509923 32.838323  
2002-03-20 09:57:17 51°12.704 2°48.758 8.648643 3.509822 32.838045  
2002-03-20 09:57:22 51°12.704 2°48.761 8.687517 3.512127 32.86429  
2002-03-20 09:57:27 51°12.705 2°48.764 8.648547 3.512828 32.874638  
2002-03-20 09:57:32 51°12.706 2°48.767 8.648547 3.512828 32.874638  
2002-03-20 09:57:37 51°12.707 2°48.77 8.650989 3.511025 32.856652  
2002-03-20 09:57:43 51°12.708 2°48.773 8.650702 3.510624 32.853249  
2002-03-20 09:57:47 51°12.708 2°48.776 8.651612 3.51383 32.885819  
2002-03-20 09:57:52 51°12.709 2°48.779 8.651181 3.514231 32.890751  
2002-03-20 09:57:57 51°12.71 2°48.782 8.651229 3.514832 32.897002  
2002-03-20 09:58:03 51°12.711 2°48.785 8.651229 3.514832 32.897002  
2002-03-20 09:58:07 51°12.711 2°48.788 8.651612 3.512728 32.873596  
2002-03-20 09:58:13 51°12.712 2°48.791 8.653384 3.514932 32.896514  
2002-03-20 09:58:17 51°12.713 2°48.793 8.734258 3.514832 32.896237  
2002-03-20 09:58:23 51°12.714 2°48.797 8.655778 3.515533 32.901235  
2002-03-20 09:58:27 51°12.715 2°48.799 8.656305 3.515032 32.896026  
2002-03-20 09:58:32 51°12.715 2°48.802 8.656305 3.515032 32.896026  
2002-03-20 09:58:37 51°12.716 2°48.804 8.696274 3.512527 32.869984  
2002-03-20 09:58:43 51°12.717 2°48.808 8.657119 3.514732 32.892136  
2002-03-20 09:58:47 51°12.718 2°48.81 8.658794 3.513129 32.876234  
2002-03-20 09:58:52 51°12.719 2°48.812 8.659848 3.512828 32.871581  
2002-03-20 09:58:57 51°12.72 2°48.815 8.697566 3.514431 32.885953  
2002-03-20 09:59:03 51°12.721 2°48.818 8.697566 3.514431 32.885953  
2002-03-20 09:59:07 51°12.721 2°48.82 8.658555 3.514832 32.89012  
2002-03-20 09:59:12 51°12.722 2°48.822 8.736458 3.512127 32.862762  
2002-03-20 09:59:17 51°12.723 2°48.825 8.658124 3.513529 32.877343  
2002-03-20 09:59:22 51°12.724 2°48.827 8.660135 3.511425 32.85318  
2002-03-20 09:59:27 51°12.724 2°48.829 8.659704 3.513629 32.876856  
2002-03-20 09:59:33 51°12.725 2°48.832 8.659704 3.513629 32.876856  
2002-03-20 09:59:37 51°12.725 2°48.834 8.661667 3.513329 32.872968  
2002-03-20 09:59:43 51°12.726 2°48.837 8.662529 3.512628 32.866441  
2002-03-20 09:59:47 51°12.727 2°48.838 8.701251 3.512026 32.859429  
2002-03-20 09:59:52 51°12.728 2°48.84 8.659417 3.512327 32.862553  
2002-03-20 09:59:57 51°12.728 2°48.842 8.659034 3.511826 32.856582  
2002-03-20 10:00:03 51°12.729 2°48.845 8.659034 3.511826 32.856582  
2002-03-20 10:00:07 51°12.729 2°48.846 8.73775 3.511726 32.855541  
2002-03-20 10:00:11 51°12.73 2°48.848 8.737319 3.511525 32.851167  
2002-03-20 10:00:17 51°12.731 2°48.851 8.659608 3.511626 32.851445  
2002-03-20 10:00:23 51°12.731 2°48.853 8.699193 3.511425 32.850126  
2002-03-20 10:00:27 51°12.732 2°48.855 8.69905 3.50852 32.819167  
2002-03-20 10:00:32 51°12.732 2°48.857 8.69905 3.50852 32.819167  
2002-03-20 10:00:37 51°12.732 2°48.858 8.699193 3.510924 32.845683  
2002-03-20 10:00:43 51°12.733 2°48.861 8.661332 3.510423 32.840476  
2002-03-20 10:00:47 51°12.733 2°48.862 8.702256 3.510323 32.840962  
2002-03-20 10:00:53 51°12.734 2°48.865 8.664779 3.50832 32.819373  
2002-03-20 10:00:57 51°12.734 2°48.866 8.665737 3.509722 32.833951  
2002-03-20 10:01:03 51°12.734 2°48.869 8.665737 3.509722 32.833951  
2002-03-20 10:01:07 51°12.735 2°48.87 8.705414 3.50872 32.822775  
2002-03-20 10:01:13 51°12.735 2°48.872 8.666551 3.509321 32.82826  
2002-03-20 10:01:17 51°12.735 2°48.874 8.664875 3.509221 32.827981  
2002-03-20 10:01:23 51°12.736 2°48.876 8.662864 3.509221 32.825692  
2002-03-20 10:01:27 51°12.736 2°48.878 8.70216 3.509221 32.82493  
2002-03-20 10:01:32 51°12.736 2°48.88 8.70216 3.509221 32.82493  
2002-03-20 10:01:37 51°12.736 2°48.882 8.663295 3.509321 32.825971  
2002-03-20 10:01:43 51°12.736 2°48.884 8.703452 3.509522 32.828053  
2002-03-20 10:01:47 51°12.736 2°48.886 8.705988 3.507518 32.805706  
2002-03-20 10:01:53 51°12.737 2°48.888 8.708045 3.506817 32.797657  
2002-03-20 10:01:57 51°12.737 2°48.89 8.708667 3.509221 32.82493  
2002-03-20 10:02:03 51°12.737 2°48.892 8.708667 3.509221 32.82493  
2002-03-20 10:02:07 51°12.737 2°48.893 8.672248 3.508921 32.821806  
2002-03-20 10:02:13 51°12.737 2°48.895 8.673109 3.50862 32.818683  
2002-03-20 10:02:18 51°12.737 2°48.897 8.673013 3.509321 32.825971  
2002-03-20 10:02:22 51°12.738 2°48.898 8.673444 3.508319 32.814035  
2002-03-20 10:02:28 51°12.738 2°48.901 8.672822 3.506917 32.797936  
2002-03-20 10:02:33 51°12.738 2°48.902 8.672822 3.506917 32.797936  
2002-03-20 10:02:37 51°12.738 2°48.904 8.674258 3.509321 32.822157  
2002-03-20 10:02:42 51°12.739 2°48.905 8.675455 3.509221 32.820353  
2002-03-20 10:02:47 51°12.739 2°48.907 8.676173 3.507718 32.803215  
2002-03-20 10:02:52 51°12.74 2°48.909 8.674928 3.50862 32.81182  
2002-03-20 10:02:57 51°12.74 2°48.91 8.676699 3.507818 32.805018  
2002-03-20 10:03:02 51°12.741 2°48.912 8.676699 3.507818 32.805018  
2002-03-20 10:03:07 51°12.741 2°48.913 8.677274 3.50892 32.81418  
2002-03-20 10:03:12 51°12.741 2°48.914 8.676987 3.509522 32.821188  
2002-03-20 10:03:17 51°12.742 2°48.916 8.71436 3.509522 32.818901  
2002-03-20 10:03:23 51°12.742 2°48.918 8.675215 3.509221 32.816541  
2002-03-20 10:03:27 51°12.742 2°48.919 8.674306 3.507919 32.801486  
2002-03-20 10:03:33 51°12.743 2°48.921 8.674306 3.507919 32.801486  
2002-03-20 10:03:37 51°12.743 2°48.922 8.752238 3.508119 32.802805  
2002-03-20 10:03:42 51°12.743 2°48.924 8.673827 3.508019 32.801002  
2002-03-20 10:03:47 51°12.744 2°48.925 8.750086 3.509121 32.81245  
2002-03-20 10:03:52 51°12.744 2°48.927 8.711825 3.507919 32.800724  
2002-03-20 10:03:57 51°12.744 2°48.928 8.673779 3.50882 32.81009  
2002-03-20 10:04:02 51°12.745 2°48.93 8.673779 3.50882 32.81009  
2002-03-20 10:04:07 51°12.745 2°48.931 8.674162 3.50892 32.811893  
2002-03-20 10:04:12 51°12.746 2°48.933 8.712399 3.50882 32.810853  
2002-03-20 10:04:17 51°12.746 2°48.934 8.672583 3.50892 32.812656  
2002-03-20 10:04:22 51°12.746 2°48.936 8.711729 3.506516 32.789201  
2002-03-20 10:04:27 51°12.746 2°48.937 8.672583 3.50852 32.810017  
2002-03-20 10:04:32 51°12.747 2°48.938 8.672583 3.50852 32.810017  
2002-03-20 10:04:37 51°12.747 2°48.94 8.675934 3.50842 32.808214  
2002-03-20 10:04:43 51°12.748 2°48.942 8.676652 3.50872 32.810574  
2002-03-20 10:04:48 51°12.748 2°48.943 8.676412 3.507418 32.798568  
2002-03-20 10:04:52 51°12.748 2°48.945 8.675934 3.506215 32.786079  
2002-03-20 10:04:57 51°12.748 2°48.946 8.675694 3.50842 32.809738  
2002-03-20 10:05:03 51°12.749 2°48.948 8.675694 3.50842 32.809738  
2002-03-20 10:05:07 51°12.749 2°48.949 8.675503 3.508119 32.805854  
2002-03-20 10:05:13 51°12.749 2°48.951 8.676795 3.50872 32.811336  
2002-03-20 10:05:17 51°12.75 2°48.952 8.677561 3.50872 32.809812  
2002-03-20 10:05:23 51°12.75 2°48.954 8.715173 3.508119 32.804329  
2002-03-20 10:05:27 51°12.75 2°48.955 8.674497 3.50852 32.80773  
2002-03-20 10:05:33 51°12.751 2°48.957 8.674497 3.50852 32.80773  
2002-03-20 10:05:37 51°12.751 2°48.958 8.677417 3.505614 32.778311  
2002-03-20 10:05:42 51°12.751 2°48.96 8.718331 3.50842 32.807452  
2002-03-20 10:05:47 51°12.752 2°48.962 8.680816 3.508119 32.802805  
2002-03-20 10:05:53 51°12.752 2°48.964 8.681247 3.508019 32.801764  
2002-03-20 10:05:57 51°12.752 2°48.965 8.721201 3.508219 32.803846  
2002-03-20 10:06:01 51°12.752 2°48.967 8.721201 3.508219 32.803846  
2002-03-20 10:06:07 51°12.753 2°48.969 8.683305 3.508219 32.804608  
2002-03-20 10:06:13 51°12.753 2°48.971 8.723832 3.506716 32.788235  
2002-03-20 10:06:17 51°12.753 2°48.973 8.764142 3.508319 32.803363  
2002-03-20 10:06:21 51°12.754 2°48.975 8.684214 3.506516 32.783869  
2002-03-20 10:06:27 51°12.754 2°48.977 8.682252 3.508119 32.799757  
2002-03-20 10:06:33 51°12.755 2°48.98 8.682252 3.508119 32.799757  
2002-03-20 10:06:38 51°12.755 2°48.982 8.720866 3.508319 32.801077  
2002-03-20 10:06:43 51°12.755 2°48.984 8.721201 3.508019 32.796431  
2002-03-20 10:06:47 51°12.755 2°48.986 8.683161 3.506616 32.780341  
2002-03-20 10:06:52 51°12.756 2°48.988 8.68297 3.508319 32.798791  
2002-03-20 10:06:57 51°12.756 2°48.991 8.681247 3.50852 32.800872  
2002-03-20 10:07:03 51°12.756 2°48.994 8.681247 3.50852 32.800872  
2002-03-20 10:07:08 51°12.757 2°48.996 8.679476 3.50852 32.800872  
2002-03-20 10:07:12 51°12.757 2°48.998 8.678279 3.50882 32.803994  
2002-03-20 10:07:17 51°12.757 2°49.001 8.678566 3.508419 32.799832  
2002-03-20 10:07:23 51°12.758 2°49.004 8.680098 3.508119 32.79671  
2002-03-20 10:07:28 51°12.758 2°49.006 8.683496 3.507418 32.789426  
2002-03-20 10:07:32 51°12.759 2°49.008 8.683496 3.507418 32.789426  
2002-03-20 10:07:37 51°12.759 2°49.011 8.688043 3.507818 32.793588  
2002-03-20 10:07:43 51°12.759 2°49.014 8.733206 3.507618 32.792269  
2002-03-20 10:07:47 51°12.76 2°49.016 8.69972 3.505815 32.775063  
2002-03-20 10:07:53 51°12.76 2°49.019 8.704361 3.506716 32.785189  
2002-03-20 10:07:57 51°12.76 2°49.021 8.710437 3.507317 32.789147  
2002-03-20 10:08:03 51°12.761 2°49.025 8.710437 3.507317 32.789147  
2002-03-20 10:08:07 51°12.761 2°49.027 8.715173 3.504612 32.759533  
2002-03-20 10:08:12 51°12.762 2°49.029 8.758166 3.506816 32.780899  
2002-03-20 10:08:17 51°12.762 2°49.032 8.723497 3.505614 32.763089  
2002-03-20 10:08:23 51°12.763 2°49.036 8.726797 3.504211 32.744725  
2002-03-20 10:08:27 51°12.763 2°49.038 8.727036 3.504612 32.744324  
2002-03-20 10:08:32 51°12.764 2°49.041 8.727036 3.504612 32.744324  
2002-03-20 10:08:37 51°12.764 2°49.044 8.72651 3.504612 32.739004  
2002-03-20 10:08:43 51°12.764 2°49.047 8.7618 3.50371 32.725849  
2002-03-20 10:08:47 51°12.765 2°49.049 8.721775 3.501907 32.702586  
2002-03-20 10:08:53 51°12.765 2°49.053 8.721966 3.503009 32.710982  
2002-03-20 10:08:57 51°12.765 2°49.055 8.720101 3.502708 32.704071  
2002-03-20 10:09:03 51°12.765 2°49.059 8.720101 3.502708 32.704071  
2002-03-20 10:09:07 51°12.764 2°49.061 8.757401 3.502408 32.700195  
2002-03-20 10:09:12 51°12.764 2°49.064 8.718092 3.502007 32.69528  
2002-03-20 10:09:17 51°12.763 2°49.067 8.75482 3.501706 32.691405  
2002-03-20 10:09:22 51°12.763 2°49.07 8.713882 3.499001 32.66487  
2002-03-20 10:09:28 51°12.762 2°49.074 8.712542 3.500905 32.685368  
2002-03-20 10:09:32 51°12.761 2°49.076 8.712542 3.500905 32.685368  
2002-03-20 10:09:37 51°12.76 2°49.079 8.716274 3.500805 32.685087  
2002-03-20 10:09:41 51°12.76 2°49.081 8.715987 3.500003 32.676775  
2002-03-20 10:09:47 51°12.759 2°49.085 8.716226 3.500905 32.685368  
2002-03-20 10:09:53 51°12.758 2°49.088 8.754198 3.500805 32.686603  
2002-03-20 10:09:57 51°12.758 2°49.09 8.755011 3.500905 32.689159  
2002-03-20 10:10:03 51°12.757 2°49.094 8.755011 3.500905 32.689159  
2002-03-20 10:10:08 51°12.756 2°49.097 8.756254 3.499202 32.673769  
2002-03-20 10:10:12 51°12.756 2°49.099 8.718666 3.499402 32.673573  
2002-03-20 10:10:17 51°12.756 2°49.102 8.718857 3.500604 32.685284  
2002-03-20 10:10:22 51°12.755 2°49.104 8.719909 3.497899 32.657987  
2002-03-20 10:10:27 51°12.755 2°49.107 8.720723 3.500003 32.679049  
2002-03-20 10:10:33 51°12.755 2°49.11 8.720723 3.500003 32.679049  
2002-03-20 10:10:37 51°12.754 2°49.113 8.722779 3.500204 32.681885  
2002-03-20 10:10:42 51°12.754 2°49.115 8.724693 3.497198 32.650715  
2002-03-20 10:10:47 51°12.754 2°49.118 8.726606 3.496497 32.642685  
2002-03-20 10:10:53 51°12.754 2°49.121 8.726654 3.499302 32.67026  
2002-03-20 10:10:58 51°12.754 2°49.123 8.72761 3.498901 32.664589  
2002-03-20 10:11:03 51°12.754 2°49.126 8.72761 3.498901 32.664589  
2002-03-20 10:11:07 51°12.755 2°49.128 8.769161 3.498801 32.66355  
2002-03-20 10:11:12 51°12.754 2°49.13 8.730719 3.498901 32.662316  
2002-03-20 10:11:17 51°12.755 2°49.133 8.732967 3.498701 32.65948  
2002-03-20 10:11:23 51°12.755 2°49.136 8.770738 3.498901 32.659286  
2002-03-20 10:11:27 51°12.755 2°49.138 8.731867 3.496697 32.637948  
2002-03-20 10:11:32 51°12.755 2°49.141 8.731867 3.496697 32.637948  
2002-03-20 10:11:37 51°12.755 2°49.143 8.770308 3.498701 32.657965  
2002-03-20 10:11:43 51°12.755 2°49.147 8.730624 3.499001 32.658052  
2002-03-20 10:11:47 51°12.755 2°49.149 8.730911 3.498901 32.657013  
2002-03-20 10:11:53 51°12.756 2°49.152 8.731293 3.497499 32.640959  
2002-03-20 10:11:57 51°12.756 2°49.154 8.731198 3.498701 32.651907  
2002-03-20 10:12:03 51°12.756 2°49.158 8.731198 3.498701 32.651907  
2002-03-20 10:12:07 51°12.756 2°49.16 8.80844 3.499402 32.659177  
2002-03-20 10:12:13 51°12.756 2°49.163 8.728328 3.497799 32.643317  
2002-03-20 10:12:18 51°12.756 2°49.166 8.728519 3.498901 32.654741  
2002-03-20 10:12:23 51°12.756 2°49.169 8.767679 3.499001 32.656537  
2002-03-20 10:12:27 51°12.757 2°49.171 8.727658 3.499202 32.659372  
2002-03-20 10:12:32 51°12.757 2°49.174 8.727658 3.499202 32.659372  
2002-03-20 10:12:37 51°12.757 2°49.176 8.728854 3.499402 32.662207  
2002-03-20 10:12:43 51°12.758 2°49.18 8.730337 3.499202 32.660129  
2002-03-20 10:12:47 51°12.758 2°49.182 8.770452 3.499001 32.657295  
2002-03-20 10:12:53 51°12.758 2°49.186 8.730432 3.499001 32.657295  
2002-03-20 10:12:57 51°12.758 2°49.188 8.730528 3.496797 32.635202  
2002-03-20 10:13:02 51°12.759 2°49.191 8.730528 3.496797 32.635202  
2002-03-20 10:13:07 51°12.759 2°49.194 8.732011 3.499502 32.664003  
2002-03-20 10:13:12 51°12.76 2°49.196 8.732441 3.499402 32.662207  
2002-03-20 10:13:17 51°12.76 2°49.199 8.732298 3.499502 32.662488  
2002-03-20 10:13:23 51°12.761 2°49.203 8.731724 3.499302 32.661168  
2002-03-20 10:13:27 51°12.761 2°49.205 8.732058 3.496497 32.629817  
2002-03-20 10:13:33 51°12.761 2°49.208 8.732058 3.496497 32.629817  
2002-03-20 10:13:37 51°12.761 2°49.211 8.77265 3.499602 32.662012  
2002-03-20 10:13:42 51°12.762 2°49.214 8.773989 3.499703 32.662293  
2002-03-20 10:13:48 51°12.763 2°49.217 8.734641 3.498701 32.651907  
2002-03-20 10:13:52 51°12.763 2°49.219 8.733206 3.499803 32.663332  
2002-03-20 10:13:57 51°12.763 2°49.222 8.733637 3.499502 32.660216  
2002-03-20 10:14:03 51°12.764 2°49.225 8.733637 3.499502 32.660216  
2002-03-20 10:14:07 51°12.765 2°49.227 8.735597 3.499703 32.662293  
2002-03-20 10:14:13 51°12.765 2°49.23 8.73555 3.497499 32.638688  
2002-03-20 10:14:17 51°12.766 2°49.233 8.737176 3.499602 32.65974  
2002-03-20 10:14:23 51°12.766 2°49.236 8.737941 3.499903 32.662855  
2002-03-20 10:14:27 51°12.767 2°49.238 8.737176 3.497899 32.642085  
2002-03-20 10:14:33 51°12.767 2°49.241 8.737176 3.497899 32.642085  
2002-03-20 10:14:37 51°12.768 2°49.243 8.734976 3.499903 32.662855  
2002-03-20 10:14:42 51°12.768 2°49.246 8.734784 3.500103 32.664175  
2002-03-20 10:14:47 51°12.769 2°49.248 8.733206 3.497499 32.637174  
2002-03-20 10:14:53 51°12.77 2°49.251 8.733493 3.500304 32.66398  
2002-03-20 10:14:57 51°12.77 2°49.254 8.733541 3.499101 32.651519  
2002-03-20 10:15:03 51°12.771 2°49.257 8.733541 3.499101 32.651519  
2002-03-20 10:15:07 51°12.771 2°49.259 8.734354 3.500604 32.667853  
2002-03-20 10:15:13 51°12.772 2°49.262 8.734115 3.499502 32.657187  
2002-03-20 10:15:17 51°12.773 2°49.264 8.731724 3.499903 32.661341  
2002-03-20 10:15:23 51°12.774 2°49.267 8.731006 3.500805 32.671445  
2002-03-20 10:15:27 51°12.774 2°49.269 8.731293 3.501306 32.676638  
2002-03-20 10:15:32 51°12.775 2°49.272 8.731293 3.501306 32.676638  
2002-03-20 10:15:37 51°12.776 2°49.274 8.811497 3.501105 32.675319  
2002-03-20 10:15:43 51°12.777 2°49.277 8.733971 3.501807 32.683347  
2002-03-20 10:15:48 51°12.778 2°49.28 8.73378 3.499102 32.655304  
2002-03-20 10:15:52 51°12.778 2°49.282 8.734402 3.501606 32.68127  
2002-03-20 10:15:57 51°12.779 2°49.284 8.777048 3.502007 32.684667  
2002-03-20 10:16:03 51°12.78 2°49.287 8.777048 3.502007 32.684667  
2002-03-20 10:16:08 51°12.781 2°49.29 8.818375 3.499703 32.66305  
2002-03-20 10:16:12 51°12.781 2°49.292 8.739854 3.499602 32.661254  
2002-03-20 10:16:16 51°12.782 2°49.294 8.739184 3.502207 32.686744  
2002-03-20 10:16:23 51°12.783 2°49.297 8.779007 3.500604 32.669368  
2002-03-20 10:16:27 51°12.784 2°49.299 8.74038 3.499703 32.659264  
2002-03-20 10:16:32 51°12.785 2°49.302 8.74038 3.499703 32.659264  
2002-03-20 10:16:37 51°12.785 2°49.304 8.740714 3.501105 32.673046  
2002-03-20 10:16:41 51°12.786 2°49.306 8.740093 3.502508 32.686828  
2002-03-20 10:16:47 51°12.787 2°49.309 8.777525 3.502608 32.686351  
2002-03-20 10:16:52 51°12.788 2°49.312 8.739806 3.502708 32.686632  
2002-03-20 10:16:57 51°12.789 2°49.314 8.74038 3.502608 32.684836  
2002-03-20 10:17:03 51°12.79 2°49.317 8.74038 3.502608 32.684836  
2002-03-20 10:17:07 51°12.791 2°49.319 8.740141 3.502808 32.686155  
2002-03-20 10:17:12 51°12.791 2°49.322 8.736171 3.502207 32.681439  
2002-03-20 10:17:17 51°12.792 2°49.324 8.771694 3.501406 32.671617  
2002-03-20 10:17:22 51°12.793 2°49.327 8.771647 3.503309 32.694379  
2002-03-20 10:17:27 51°12.794 2°49.329 8.773797 3.501606 32.675208  
2002-03-20 10:17:32 51°12.795 2°49.332 8.773797 3.501606 32.675208  
2002-03-20 10:17:37 51°12.796 2°49.334 8.736267 3.502307 32.68172  
2002-03-20 10:17:43 51°12.797 2°49.337 8.737032 3.501907 32.678324  
2002-03-20 10:17:48 51°12.797 2°49.34 8.734067 3.504311 32.704766  
2002-03-20 10:17:53 51°12.798 2°49.343 8.8125 3.504612 32.710157  
2002-03-20 10:17:57 51°12.799 2°49.345 8.735167 3.504512 32.709876  
2002-03-20 10:18:03 51°12.8 2°49.348 8.735167 3.504512 32.709876  
2002-03-20 10:18:07 51°12.8 2°49.35 8.735263 3.504612 32.710157  
2002-03-20 10:18:12 51°12.801 2°49.353 8.735693 3.504912 32.712515  
2002-03-20 10:18:17 51°12.802 2°49.356 8.73641 3.504712 32.711954  
2002-03-20 10:18:23 51°12.803 2°49.359 8.734067 3.502708 32.691937  
2002-03-20 10:18:27 51°12.804 2°49.361 8.730241 3.505113 32.716868  
2002-03-20 10:18:33 51°12.804 2°49.364 8.730241 3.505113 32.716868  
2002-03-20 10:18:37 51°12.805 2°49.366 8.72871 3.504912 32.71479  
2002-03-20 10:18:43 51°12.806 2°49.369 8.806625 3.503209 32.695615  
2002-03-20 10:18:47 51°12.806 2°49.372 8.728997 3.505714 32.723101  
2002-03-20 10:18:53 51°12.807 2°49.375 8.807341 3.506014 32.723941  
2002-03-20 10:18:57 51°12.807 2°49.377 8.729715 3.505012 32.714312  
2002-03-20 10:19:03 51°12.808 2°49.381 8.729715 3.505012 32.714312  
2002-03-20 10:19:07 51°12.809 2°49.383 8.731341 3.506315 32.730093  
2002-03-20 10:19:13 51°12.809 2°49.386 8.731724 3.506415 32.733409  
2002-03-20 10:19:17 51°12.809 2°49.389 8.730863 3.50391 32.708194  
2002-03-20 10:19:22 51°12.809 2°49.392 8.728471 3.505213 32.7217  
2002-03-20 10:19:27 51°12.81 2°49.394 8.768874 3.506816 32.738324  
2002-03-20 10:19:32 51°12.809 2°49.398 8.768874 3.506816 32.738324  
2002-03-20 10:19:37 51°12.81 2°49.4 8.731771 3.506515 32.735966  
2002-03-20 10:19:43 51°12.809 2°49.404 8.772077 3.505413 32.724537  
2002-03-20 10:19:47 51°12.809 2°49.407 8.732632 3.506916 32.738604  
2002-03-20 10:19:52 51°12.809 2°49.41 8.850416 3.507217 32.740962  
2002-03-20 10:19:57 51°12.809 2°49.413 8.73555 3.506816 32.738324  
2002-03-20 10:20:03 51°12.809 2°49.416 8.73555 3.506816 32.738324  
2002-03-20 10:20:07 51°12.808 2°49.419 8.734641 3.507818 32.747955  
2002-03-20 10:20:13 51°12.808 2°49.422 8.73115 3.507417 32.744558  
2002-03-20 10:20:17 51°12.807 2°49.425 8.730145 3.508218 32.751352  
2002-03-20 10:20:22 51°12.807 2°49.428 8.77093 3.507116 32.740682  
2002-03-20 10:20:27 51°12.806 2°49.431 8.732728 3.507617 32.743599  
2002-03-20 10:20:33 51°12.806 2°49.434 8.732728 3.507617 32.743599  
2002-03-20 10:20:37 51°12.805 2°49.436 8.734641 3.507116 32.738404  
2002-03-20 10:20:42 51°12.804 2°49.439 8.735311 3.509521 32.76334  
2002-03-20 10:20:47 51°12.803 2°49.442 8.733206 3.510423 32.774212  
2002-03-20 10:20:53 51°12.802 2°49.445 8.733493 3.511024 32.780447  
2002-03-20 10:20:57 51°12.802 2°49.448 8.73378 3.511525 32.785643  
2002-03-20 10:21:03 51°12.801 2°49.451 8.73378 3.511525 32.785643  
2002-03-20 10:21:07 51°12.799 2°49.453 8.81293 3.512226 32.792157  
2002-03-20 10:21:12 51°12.799 2°49.456 8.773511 3.513328 32.801307  
2002-03-20 10:21:16 51°12.798 2°49.458 8.773081 3.513328 32.802067  
2002-03-20 10:21:23 51°12.796 2°49.461 8.73555 3.511525 32.784883  
2002-03-20 10:21:27 51°12.795 2°49.463 8.737463 3.514731 32.816617  
2002-03-20 10:21:33 51°12.794 2°49.466 8.737463 3.514731 32.816617  
2002-03-20 10:21:37 51°12.793 2°49.468 8.74081 3.514931 32.818695  
2002-03-20 10:21:43 51°12.791 2°49.471 8.741862 3.512527 32.792993  
2002-03-20 10:21:48 51°12.79 2°49.473 8.784359 3.51413 32.810381  
2002-03-20 10:21:53 51°12.789 2°49.475 8.745114 3.515031 32.818974  
2002-03-20 10:21:57 51°12.788 2°49.477 8.747552 3.514931 32.817173  
2002-03-20 10:22:03 51°12.786 2°49.48 8.747552 3.514931 32.817173  
2002-03-20 10:22:07 51°12.785 2°49.482 8.748461 3.515131 32.816969  
2002-03-20 10:22:13 51°12.783 2°49.484 8.745831 3.51453 32.809213  
2002-03-20 10:22:17 51°12.782 2°49.485 8.786271 3.513027 32.792866  
2002-03-20 10:22:23 51°12.78 2°49.488 8.78866 3.515833 32.818917  
2002-03-20 10:22:27 51°12.779 2°49.489 8.750182 3.515833 32.818156  
2002-03-20 10:22:33 51°12.778 2°49.491 8.750182 3.515833 32.818156  
2002-03-20 10:22:37 51°12.777 2°49.493 8.792292 3.513528 32.79274  
2002-03-20 10:22:43 51°12.775 2°49.495 8.754485 3.515833 32.815874  
2002-03-20 10:22:47 51°12.774 2°49.496 8.753481 3.513228 32.788863  
2002-03-20 10:22:52 51°12.772 2°49.498 8.751712 3.516033 32.816431  
2002-03-20 10:22:57 51°12.771 2°49.5 8.751712 3.516434 32.820586  
2002-03-20 10:23:02 51°12.769 2°49.501 8.751712 3.516434 32.820586  
2002-03-20 10:23:07 51°12.768 2°49.503 8.751856 3.513428 32.787901  
2002-03-20 10:23:12 51°12.766 2°49.504 8.753003 3.516434 32.819065  
2002-03-20 10:23:17 51°12.764 2°49.505 8.751808 3.514831 32.799403